createdAt,value
2018-03-16T00:00:47.291Z,964.8
2018-03-16T00:01:49.695Z,964.7
2018-03-16T00:02:52.152Z,964.8
2018-03-16T00:03:54.648Z,964.7
2018-03-16T00:04:57.081Z,964.7
2018-03-16T00:05:59.681Z,964.7
2018-03-16T00:07:02.523Z,964.7
2018-03-16T00:08:05.673Z,964.7
2018-03-16T00:09:08.182Z,964.7
2018-03-16T00:10:11.002Z,964.6
2018-03-16T00:11:14.642Z,964.5
2018-03-16T00:12:17.141Z,964.6
2018-03-16T00:13:19.558Z,964.6
2018-03-16T00:14:22.035Z,964.6
2018-03-16T00:15:25.402Z,964.3
2018-03-16T00:16:27.809Z,964.7
2018-03-16T00:17:30.626Z,964.7
2018-03-16T00:18:33.214Z,964.6
2018-03-16T00:19:35.717Z,964.4
2018-03-16T00:20:38.232Z,964.7
2018-03-16T00:21:40.771Z,964.7
2018-03-16T00:22:43.284Z,964.6
2018-03-16T00:23:45.813Z,964.7
2018-03-16T00:24:48.485Z,964.6
2018-03-16T00:25:50.976Z,964.6
2018-03-16T00:26:53.455Z,964.6
2018-03-16T00:27:55.975Z,964.7
2018-03-16T00:28:58.615Z,964.6
2018-03-16T00:30:01.241Z,964.6
2018-03-16T00:31:03.761Z,964.8
2018-03-16T00:32:06.381Z,964.8
2018-03-16T00:33:08.908Z,964.6
2018-03-16T00:34:11.315Z,964.7
2018-03-16T00:35:13.848Z,964.8
2018-03-16T00:36:16.387Z,964.8
2018-03-16T00:37:18.784Z,964.8
2018-03-16T00:38:21.377Z,964.7
2018-03-16T00:39:23.798Z,964.6
2018-03-16T00:40:26.982Z,964.8
2018-03-16T00:41:29.380Z,964.8
2018-03-16T00:42:32.020Z,964.7
2018-03-16T00:43:34.720Z,964.8
2018-03-16T00:44:37.826Z,964.8
2018-03-16T00:45:40.291Z,964.8
2018-03-16T00:46:42.781Z,964.7
2018-03-16T00:47:49.238Z,964.8
2018-03-16T00:48:51.779Z,964.8
2018-03-16T00:49:54.304Z,964.7
2018-03-16T00:50:56.690Z,964.8
2018-03-16T00:51:59.350Z,964.8
2018-03-16T00:53:02.019Z,964.9
2018-03-16T00:54:04.597Z,964.9
2018-03-16T00:55:07.147Z,964.8
2018-03-16T00:56:09.699Z,964.8
2018-03-16T00:57:12.317Z,965
2018-03-16T00:58:19.561Z,964.8
2018-03-16T00:59:22.099Z,964.8
2018-03-16T01:00:24.584Z,964.8
2018-03-16T01:01:27.067Z,964.8
2018-03-16T01:02:29.551Z,964.8
2018-03-16T01:03:32.308Z,964.9
2018-03-16T01:04:34.810Z,964.8
2018-03-16T01:05:37.358Z,964.9
2018-03-16T01:06:39.862Z,964.8
2018-03-16T01:07:42.461Z,965
2018-03-16T01:08:44.954Z,964.9
2018-03-16T01:09:47.430Z,964.8
2018-03-16T01:10:49.979Z,964.9
2018-03-16T01:11:52.480Z,964.8
2018-03-16T01:12:54.971Z,964.8
2018-03-16T01:13:57.390Z,964.9
2018-03-16T01:14:59.857Z,964.8
2018-03-16T01:16:02.527Z,964.7
2018-03-16T01:17:05.351Z,964.8
2018-03-16T01:18:07.990Z,964.7
2018-03-16T01:19:10.986Z,964.8
2018-03-16T01:20:13.414Z,964.7
2018-03-16T01:21:15.865Z,964.9
2018-03-16T01:22:18.328Z,964.8
2018-03-16T01:23:20.915Z,964.8
2018-03-16T01:24:23.341Z,964.8
2018-03-16T01:25:25.806Z,964.8
2018-03-16T01:26:28.231Z,964.7
2018-03-16T01:27:30.764Z,964.9
2018-03-16T01:28:33.465Z,964.8
2018-03-16T01:29:35.894Z,964.6
2018-03-16T01:30:38.396Z,964.7
2018-03-16T01:31:40.961Z,964.8
2018-03-16T01:32:43.468Z,964.8
2018-03-16T01:33:45.897Z,964.7
2018-03-16T01:34:48.317Z,964.7
2018-03-16T01:35:50.829Z,964.8
2018-03-16T01:36:53.290Z,964.8
2018-03-16T01:37:55.760Z,964.9
2018-03-16T01:38:58.188Z,964.8
2018-03-16T01:40:00.620Z,965
2018-03-16T01:41:03.203Z,964.9
2018-03-16T01:42:05.747Z,964.6
2018-03-16T01:43:08.753Z,964.8
2018-03-16T01:44:11.220Z,964.9
2018-03-16T01:45:13.765Z,964.9
2018-03-16T01:46:16.300Z,964.6
2018-03-16T01:47:18.811Z,964.8
2018-03-16T01:48:21.317Z,964.8
2018-03-16T01:49:24.042Z,964.9
2018-03-16T01:50:26.653Z,964.9
2018-03-16T01:51:29.089Z,964.8
2018-03-16T01:52:31.555Z,964.8
2018-03-16T01:53:34.024Z,964.9
2018-03-16T01:54:36.474Z,964.8
2018-03-16T01:55:38.944Z,964.8
2018-03-16T01:56:41.435Z,964.9
2018-03-16T01:57:43.914Z,964.9
2018-03-16T01:58:46.461Z,964.9
2018-03-16T01:59:48.883Z,964.8
2018-03-16T02:00:51.350Z,964.8
2018-03-16T02:01:54.091Z,964.8
2018-03-16T02:02:56.489Z,964.9
2018-03-16T02:03:58.859Z,964.8
2018-03-16T02:05:01.369Z,964.7
2018-03-16T02:06:03.904Z,964.8
2018-03-16T02:07:06.457Z,964.8
2018-03-16T02:08:09.058Z,964.9
2018-03-16T02:09:11.702Z,964.8
2018-03-16T02:10:14.146Z,964.8
2018-03-16T02:11:19.546Z,964.7
2018-03-16T02:12:21.945Z,964.8
2018-03-16T02:13:24.421Z,964.8
2018-03-16T02:14:26.902Z,964.8
2018-03-16T02:15:29.340Z,965
2018-03-16T02:16:31.848Z,964.9
2018-03-16T02:17:34.420Z,964.9
2018-03-16T02:18:36.893Z,965
2018-03-16T02:19:39.865Z,964.9
2018-03-16T02:20:42.329Z,965
2018-03-16T02:21:45.097Z,965.2
2018-03-16T02:22:47.807Z,965
2018-03-16T02:23:50.216Z,965
2018-03-16T02:24:52.707Z,965
2018-03-16T02:25:55.113Z,965.1
2018-03-16T02:26:57.547Z,965.1
2018-03-16T02:28:00.042Z,965
2018-03-16T02:29:02.826Z,965.1
2018-03-16T02:30:05.333Z,965
2018-03-16T02:31:07.924Z,965.1
2018-03-16T02:32:10.411Z,964.9
2018-03-16T02:33:12.935Z,964.8
2018-03-16T02:34:15.342Z,965
2018-03-16T02:35:17.807Z,965
2018-03-16T02:36:20.893Z,965
2018-03-16T02:37:23.366Z,965
2018-03-16T02:38:25.911Z,965
2018-03-16T02:39:28.307Z,965
2018-03-16T02:40:30.868Z,965
2018-03-16T02:41:33.350Z,965
2018-03-16T02:42:35.948Z,965
2018-03-16T02:43:38.541Z,965
2018-03-16T02:44:40.973Z,965.1
2018-03-16T02:45:43.440Z,965
2018-03-16T02:46:46.347Z,965
2018-03-16T02:47:48.747Z,965
2018-03-16T02:48:51.172Z,964.9
2018-03-16T02:49:53.651Z,965
2018-03-16T02:50:56.098Z,965
2018-03-16T02:51:58.507Z,965.1
2018-03-16T02:53:01.363Z,965.1
2018-03-16T02:54:04.133Z,965
2018-03-16T02:55:06.881Z,964.9
2018-03-16T02:56:09.395Z,965
2018-03-16T02:57:11.943Z,965
2018-03-16T02:58:14.591Z,965.1
2018-03-16T02:59:17.024Z,965
2018-03-16T03:00:19.456Z,964.7
2018-03-16T03:01:22.012Z,965
2018-03-16T03:02:24.475Z,965
2018-03-16T03:03:26.901Z,965
2018-03-16T03:04:30.418Z,965
2018-03-16T03:05:32.931Z,965
2018-03-16T03:06:35.432Z,965
2018-03-16T03:07:37.918Z,964.9
2018-03-16T03:08:40.673Z,965.2
2018-03-16T03:09:43.230Z,965
2018-03-16T03:10:45.634Z,965
2018-03-16T03:11:48.166Z,965.1
2018-03-16T03:12:50.860Z,964.9
2018-03-16T03:13:53.330Z,964.9
2018-03-16T03:14:55.744Z,965.1
2018-03-16T03:15:58.169Z,965
2018-03-16T03:17:00.578Z,965
2018-03-16T03:18:03.122Z,965
2018-03-16T03:19:05.553Z,965.1
2018-03-16T03:20:08.071Z,965.1
2018-03-16T03:21:10.597Z,965.1
2018-03-16T03:22:13.100Z,965.1
2018-03-16T03:23:15.535Z,965.1
2018-03-16T03:24:18.076Z,965.1
2018-03-16T03:25:20.764Z,965.2
2018-03-16T03:26:23.313Z,965.1
2018-03-16T03:27:25.841Z,965.1
2018-03-16T03:28:28.250Z,965.1
2018-03-16T03:29:30.867Z,965
2018-03-16T03:30:33.316Z,965.1
2018-03-16T03:31:46.843Z,965.1
2018-03-16T03:32:49.292Z,965.2
2018-03-16T03:33:51.726Z,965.1
2018-03-16T03:34:55.122Z,965.1
2018-03-16T03:35:57.573Z,965.1
2018-03-16T03:36:59.999Z,965.1
2018-03-16T03:38:03.085Z,965.1
2018-03-16T03:39:05.583Z,965.1
2018-03-16T03:40:08.145Z,965.2
2018-03-16T03:41:10.631Z,965.2
2018-03-16T03:42:13.314Z,965.2
2018-03-16T03:43:16.186Z,965.2
2018-03-16T03:44:18.622Z,965.1
2018-03-16T03:45:22.198Z,965.2
2018-03-16T03:46:24.715Z,965.1
2018-03-16T03:47:28.363Z,965.2
2018-03-16T03:48:33.781Z,965.2
2018-03-16T03:49:36.267Z,965.2
2018-03-16T03:50:38.796Z,965.2
2018-03-16T03:51:41.278Z,965.1
2018-03-16T03:52:43.809Z,965.1
2018-03-16T03:53:46.272Z,965.2
2018-03-16T03:54:48.835Z,965.3
2018-03-16T03:55:51.596Z,965.3
2018-03-16T03:56:54.130Z,965
2018-03-16T03:57:56.526Z,965.2
2018-03-16T03:58:58.944Z,965.2
2018-03-16T04:00:01.581Z,965.2
2018-03-16T04:01:04.046Z,965.1
2018-03-16T04:02:06.710Z,965.1
2018-03-16T04:03:09.145Z,965.2
2018-03-16T04:04:11.588Z,965.2
2018-03-16T04:05:14.072Z,965
2018-03-16T04:06:16.853Z,965.1
2018-03-16T04:07:19.238Z,965.1
2018-03-16T04:08:21.657Z,964.9
2018-03-16T04:09:24.071Z,965.2
2018-03-16T04:10:26.477Z,965.2
2018-03-16T04:11:28.906Z,965.2
2018-03-16T04:12:31.345Z,965.2
2018-03-16T04:13:33.881Z,965.1
2018-03-16T04:14:36.384Z,965.1
2018-03-16T04:15:38.861Z,965.1
2018-03-16T04:16:41.365Z,965.2
2018-03-16T04:17:43.854Z,965.1
2018-03-16T04:18:46.293Z,965.1
2018-03-16T04:19:48.756Z,965.2
2018-03-16T04:20:51.161Z,965.1
2018-03-16T04:21:53.608Z,965.1
2018-03-16T04:22:56.127Z,965.1
2018-03-16T04:23:58.560Z,965.1
2018-03-16T04:25:01.033Z,965.2
2018-03-16T04:26:03.546Z,965.1
2018-03-16T04:27:06.105Z,965.2
2018-03-16T04:28:10.709Z,965.1
2018-03-16T04:29:13.229Z,965.2
2018-03-16T04:30:15.677Z,965.1
2018-03-16T04:31:18.167Z,965.1
2018-03-16T04:32:20.639Z,965.2
2018-03-16T04:33:23.098Z,965.2
2018-03-16T04:34:25.486Z,965.1
2018-03-16T04:35:27.890Z,965.1
2018-03-16T04:36:30.310Z,965.1
2018-03-16T04:37:32.785Z,965.2
2018-03-16T04:38:35.268Z,965.2
2018-03-16T04:39:37.717Z,965.2
2018-03-16T04:40:40.155Z,965.2
2018-03-16T04:41:42.603Z,965.2
2018-03-16T04:42:45.380Z,965.1
2018-03-16T04:43:47.902Z,965.1
2018-03-16T04:44:50.307Z,965.1
2018-03-16T04:45:52.796Z,965.1
2018-03-16T04:46:55.274Z,965.1
2018-03-16T04:47:57.755Z,965.1
2018-03-16T04:49:00.165Z,965.1
2018-03-16T04:50:02.697Z,965.1
2018-03-16T04:51:05.213Z,965.1
2018-03-16T04:52:07.701Z,965.2
2018-03-16T04:53:10.165Z,965.1
2018-03-16T04:54:12.797Z,965.1
2018-03-16T04:55:15.263Z,965.2
2018-03-16T04:56:20.522Z,965.1
2018-03-16T04:57:23.075Z,965
2018-03-16T04:58:25.988Z,965.2
2018-03-16T04:59:28.355Z,965.1
2018-03-16T05:00:30.944Z,965.2
2018-03-16T05:01:39.398Z,965
2018-03-16T05:02:41.930Z,965.2
2018-03-16T05:03:44.387Z,965.2
2018-03-16T05:04:46.818Z,965.2
2018-03-16T05:05:49.220Z,965.2
2018-03-16T05:06:51.654Z,965.2
2018-03-16T05:07:54.111Z,965.2
2018-03-16T05:08:56.540Z,965.2
2018-03-16T05:09:58.977Z,965.2
2018-03-16T05:11:01.444Z,965.2
2018-03-16T05:12:04.070Z,965.2
2018-03-16T05:13:06.545Z,965.1
2018-03-16T05:14:09.110Z,965.1
2018-03-16T05:15:11.539Z,965.2
2018-03-16T05:16:14.018Z,965.1
2018-03-16T05:17:16.481Z,965.2
2018-03-16T05:18:18.926Z,965.2
2018-03-16T05:19:21.346Z,965.2
2018-03-16T05:20:23.830Z,965.2
2018-03-16T05:21:26.379Z,965.3
2018-03-16T05:22:28.800Z,965.2
2018-03-16T05:23:31.230Z,965.2
2018-03-16T05:24:33.786Z,965.2
2018-03-16T05:25:36.185Z,965.2
2018-03-16T05:26:39.191Z,965.2
2018-03-16T05:27:41.587Z,965.2
2018-03-16T05:28:44.026Z,965.3
2018-03-16T05:29:46.748Z,965.3
2018-03-16T05:30:50.030Z,965.3
2018-03-16T05:31:52.767Z,965.3
2018-03-16T05:32:55.578Z,965.2
2018-03-16T05:33:58.027Z,965.2
2018-03-16T05:35:00.509Z,965.3
2018-03-16T05:36:03.008Z,965.3
2018-03-16T05:37:05.752Z,965.3
2018-03-16T05:38:08.863Z,965.3
2018-03-16T05:39:11.464Z,965.4
2018-03-16T05:40:13.974Z,965.3
2018-03-16T05:41:16.676Z,965.4
2018-03-16T05:42:19.556Z,965.4
2018-03-16T05:43:22.017Z,965.4
2018-03-16T05:44:24.656Z,965.3
2018-03-16T05:45:29.226Z,965.4
2018-03-16T05:46:31.726Z,965.4
2018-03-16T05:47:34.551Z,965.4
2018-03-16T05:48:37.017Z,965.4
2018-03-16T05:49:39.537Z,965.5
2018-03-16T05:50:42.256Z,965.4
2018-03-16T05:51:44.691Z,965.5
2018-03-16T05:52:47.260Z,965.4
2018-03-16T05:53:49.711Z,965.4
2018-03-16T05:54:52.222Z,965.5
2018-03-16T05:55:54.614Z,965.5
2018-03-16T05:56:57.124Z,965.4
2018-03-16T05:57:59.595Z,965.5
2018-03-16T05:59:02.052Z,965.5
2018-03-16T06:00:04.647Z,965.5
2018-03-16T06:01:07.173Z,965.5
2018-03-16T06:02:09.994Z,965.5
2018-03-16T06:03:13.122Z,965.5
2018-03-16T06:04:15.587Z,965.5
2018-03-16T06:05:18.144Z,965.5
2018-03-16T06:06:20.631Z,965.5
2018-03-16T06:07:23.246Z,965.6
2018-03-16T06:08:25.734Z,965.5
2018-03-16T06:09:28.219Z,965.4
2018-03-16T06:10:30.720Z,965.6
2018-03-16T06:11:33.496Z,965.8
2018-03-16T06:12:35.998Z,965.6
2018-03-16T06:13:38.473Z,965.5
2018-03-16T06:14:41.290Z,965.6
2018-03-16T06:15:43.996Z,965.6
2018-03-16T06:16:46.661Z,965.7
2018-03-16T06:17:49.355Z,965.7
2018-03-16T06:18:51.966Z,965.6
2018-03-16T06:19:54.640Z,965.7
2018-03-16T06:20:57.190Z,965.7
2018-03-16T06:21:59.726Z,965.6
2018-03-16T06:23:02.462Z,965.7
2018-03-16T06:24:05.070Z,965.6
2018-03-16T06:25:07.777Z,965.6
2018-03-16T06:26:10.557Z,965.6
2018-03-16T06:27:13.272Z,965.7
2018-03-16T06:28:16.156Z,965.7
2018-03-16T06:29:18.718Z,965.8
2018-03-16T06:30:21.524Z,965.7
2018-03-16T06:31:24.123Z,965.7
2018-03-16T06:32:26.731Z,965.7
2018-03-16T06:33:33.800Z,965.8
2018-03-16T06:34:36.347Z,965.8
2018-03-16T06:35:38.984Z,965.8
2018-03-16T06:36:41.696Z,965.8
2018-03-16T06:37:44.430Z,965.8
2018-03-16T06:38:47.642Z,965.8
2018-03-16T06:39:50.426Z,965.8
2018-03-16T06:40:53.074Z,965.9
2018-03-16T06:41:55.653Z,965.7
2018-03-16T06:42:58.210Z,965.8
2018-03-16T06:44:00.796Z,965.9
2018-03-16T06:45:03.757Z,965.9
2018-03-16T06:46:06.283Z,965.9
2018-03-16T06:47:08.956Z,965.9
2018-03-16T06:48:12.031Z,965.9
2018-03-16T06:49:14.782Z,965.9
2018-03-16T06:50:17.303Z,966
2018-03-16T06:51:27.225Z,965.9
2018-03-16T06:52:30.696Z,965.9
2018-03-16T06:53:33.578Z,965.9
2018-03-16T06:54:42.004Z,965.8
2018-03-16T06:55:45.051Z,965.9
2018-03-16T06:56:47.822Z,966
2018-03-16T06:57:50.326Z,966
2018-03-16T06:58:52.898Z,966
2018-03-16T06:59:55.557Z,966
2018-03-16T07:00:58.276Z,966.1
2018-03-16T07:02:00.899Z,966
2018-03-16T07:03:03.784Z,966
2018-03-16T07:04:06.902Z,965.9
2018-03-16T07:05:10.016Z,966.1
2018-03-16T07:06:12.861Z,966.1
2018-03-16T07:07:15.705Z,966.1
2018-03-16T07:08:18.454Z,966.1
2018-03-16T07:09:21.009Z,966.1
2018-03-16T07:10:24.018Z,966
2018-03-16T07:11:26.551Z,966.1
2018-03-16T07:12:29.603Z,966.1
2018-03-16T07:13:32.390Z,966.1
2018-03-16T07:14:35.064Z,966.1
2018-03-16T07:15:37.908Z,966.1
2018-03-16T07:16:40.571Z,966
2018-03-16T07:17:43.080Z,966
2018-03-16T07:18:45.712Z,966.1
2018-03-16T07:19:48.218Z,966.1
2018-03-16T07:20:50.842Z,966.1
2018-03-16T07:21:59.371Z,965.8
2018-03-16T07:23:01.978Z,966.1
2018-03-16T07:24:04.834Z,966.1
2018-03-16T07:25:07.571Z,966.1
2018-03-16T07:26:10.290Z,966.1
2018-03-16T07:27:14.094Z,966.1
2018-03-16T07:28:16.884Z,966.2
2018-03-16T07:29:19.905Z,966.1
2018-03-16T07:30:22.576Z,966.1
2018-03-16T07:31:25.836Z,966.1
2018-03-16T07:32:28.643Z,966.1
2018-03-16T07:33:31.218Z,966.2
2018-03-16T07:34:33.982Z,966.1
2018-03-16T07:35:36.837Z,966.1
2018-03-16T07:36:39.552Z,966.2
2018-03-16T07:37:44.463Z,966.2
2018-03-16T07:38:47.211Z,966.2
2018-03-16T07:39:49.816Z,966.2
2018-03-16T07:40:52.414Z,966.2
2018-03-16T07:41:54.952Z,966.2
2018-03-16T07:42:57.473Z,966.2
2018-03-16T07:44:01.723Z,966.2
2018-03-16T07:45:04.708Z,966.2
2018-03-16T07:46:07.515Z,966.2
2018-03-16T07:47:10.100Z,966.2
2018-03-16T07:48:12.663Z,966.3
2018-03-16T07:49:15.387Z,966.3
2018-03-16T07:50:18.005Z,966.3
2018-03-16T07:51:21.033Z,966.3
2018-03-16T07:52:23.686Z,966.2
2018-03-16T07:53:26.452Z,966.3
2018-03-16T07:54:29.121Z,966.3
2018-03-16T07:55:31.687Z,966.3
2018-03-16T07:56:42.958Z,966.2
2018-03-16T07:57:45.789Z,966.3
2018-03-16T07:58:48.416Z,966.4
2018-03-16T07:59:50.923Z,966.2
2018-03-16T08:00:53.884Z,966.4
2018-03-16T08:01:56.374Z,966.3
2018-03-16T08:02:59.109Z,966.3
2018-03-16T08:04:02.129Z,966.1
2018-03-16T08:05:05.097Z,966.3
2018-03-16T08:06:08.001Z,966.3
2018-03-16T08:07:10.917Z,966.3
2018-03-16T08:08:13.667Z,966.3
2018-03-16T08:09:16.313Z,966.3
2018-03-16T08:10:18.941Z,966.3
2018-03-16T08:11:21.591Z,966.3
2018-03-16T08:12:24.480Z,966.3
2018-03-16T08:13:27.775Z,966.3
2018-03-16T08:14:30.555Z,966.3
2018-03-16T08:15:33.154Z,966.3
2018-03-16T08:16:36.102Z,966.2
2018-03-16T08:17:38.866Z,966.2
2018-03-16T08:18:41.734Z,966.4
2018-03-16T08:19:44.443Z,966.3
2018-03-16T08:20:47.012Z,966.3
2018-03-16T08:21:49.541Z,966.3
2018-03-16T08:22:52.546Z,966.2
2018-03-16T08:23:55.138Z,966.3
2018-03-16T08:24:58.107Z,966.4
2018-03-16T08:26:00.992Z,966.4
2018-03-16T08:27:04.240Z,966.3
2018-03-16T08:28:10.739Z,966.3
2018-03-16T08:29:13.990Z,966.4
2018-03-16T08:30:16.810Z,966.4
2018-03-16T08:31:19.717Z,966.4
2018-03-16T08:32:22.371Z,966.3
2018-03-16T08:33:25.156Z,966.4
2018-03-16T08:34:28.228Z,966.4
2018-03-16T08:35:31.068Z,966.4
2018-03-16T08:36:33.940Z,966.4
2018-03-16T08:37:36.660Z,966.4
2018-03-16T08:38:39.338Z,966.4
2018-03-16T08:39:42.159Z,966.1
2018-03-16T08:40:45.100Z,966.4
2018-03-16T08:41:54.919Z,966.4
2018-03-16T08:42:57.792Z,966.4
2018-03-16T08:44:00.409Z,966.4
2018-03-16T08:45:03.015Z,966.5
2018-03-16T08:46:05.697Z,966.4
2018-03-16T08:47:11.450Z,966.5
2018-03-16T08:48:14.291Z,966.5
2018-03-16T08:49:17.175Z,966.5
2018-03-16T08:50:19.918Z,966.4
2018-03-16T08:51:22.544Z,966.5
2018-03-16T08:52:25.273Z,966.5
2018-03-16T08:53:27.926Z,966.4
2018-03-16T08:54:30.910Z,966.4
2018-03-16T08:55:33.505Z,966.4
2018-03-16T08:56:36.263Z,966.5
2018-03-16T08:57:38.916Z,966.4
2018-03-16T08:58:41.697Z,966.5
2018-03-16T08:59:44.659Z,966.5
2018-03-16T09:00:47.221Z,966.4
2018-03-16T09:01:49.927Z,966.3
2018-03-16T09:02:52.643Z,966.4
2018-03-16T09:03:55.577Z,966.5
2018-03-16T09:04:58.243Z,966.4
2018-03-16T09:06:01.130Z,966.3
2018-03-16T09:07:03.879Z,966.5
2018-03-16T09:08:06.725Z,966.4
2018-03-16T09:09:09.962Z,966.4
2018-03-16T09:10:12.697Z,966.5
2018-03-16T09:11:15.757Z,966.5
2018-03-16T09:12:18.357Z,966.5
2018-03-16T09:13:20.947Z,966.5
2018-03-16T09:14:23.598Z,966.5
2018-03-16T09:15:26.241Z,966.5
2018-03-16T09:16:29.130Z,966.5
2018-03-16T09:17:32.080Z,966.5
2018-03-16T09:18:34.970Z,966.5
2018-03-16T09:19:37.953Z,966.4
2018-03-16T09:20:40.865Z,966.5
2018-03-16T09:21:43.725Z,966.4
2018-03-16T09:22:46.691Z,966.5
2018-03-16T09:23:49.382Z,966.5
2018-03-16T09:24:52.670Z,966.5
2018-03-16T09:25:55.646Z,966.5
2018-03-16T09:26:58.183Z,966.4
2018-03-16T09:28:01.242Z,966.6
2018-03-16T09:29:04.425Z,966.6
2018-03-16T09:30:06.974Z,966.6
2018-03-16T09:31:10.723Z,966.6
2018-03-16T09:32:13.784Z,966.6
2018-03-16T09:33:16.685Z,966.6
2018-03-16T09:34:19.421Z,966.6
2018-03-16T09:35:22.475Z,966.6
2018-03-16T09:36:25.453Z,966.6
2018-03-16T09:37:28.464Z,966.6
2018-03-16T09:38:31.524Z,966.6
2018-03-16T09:39:34.251Z,966.6
2018-03-16T09:40:36.712Z,966.6
2018-03-16T09:41:45.649Z,966.5
2018-03-16T09:42:48.520Z,966.6
2018-03-16T09:43:51.105Z,966.6
2018-03-16T09:44:53.678Z,966.6
2018-03-16T09:45:56.512Z,966.6
2018-03-16T09:46:59.213Z,966.6
2018-03-16T09:48:02.119Z,966.7
2018-03-16T09:49:04.935Z,966.7
2018-03-16T09:50:07.790Z,966.7
2018-03-16T09:51:10.564Z,966.7
2018-03-16T09:52:13.455Z,966.6
2018-03-16T09:53:16.591Z,966.7
2018-03-16T09:54:19.375Z,966.6
2018-03-16T09:55:21.966Z,966.7
2018-03-16T09:56:24.674Z,966.7
2018-03-16T09:57:28.151Z,966.7
2018-03-16T09:58:30.974Z,966.5
2018-03-16T09:59:33.562Z,966.7
2018-03-16T10:00:36.384Z,966.5
2018-03-16T10:01:39.291Z,966.7
2018-03-16T10:02:43.824Z,966.7
2018-03-16T10:03:46.759Z,966.7
2018-03-16T10:04:49.586Z,966.7
2018-03-16T10:05:52.500Z,966.7
2018-03-16T10:06:55.249Z,966.7
2018-03-16T10:07:58.456Z,966.6
2018-03-16T10:09:03.089Z,966.8
2018-03-16T10:10:06.164Z,966.8
2018-03-16T10:11:09.200Z,966.8
2018-03-16T10:12:12.403Z,966.8
2018-03-16T10:13:15.461Z,966.7
2018-03-16T10:14:18.363Z,966.7
2018-03-16T10:15:21.241Z,966.7
2018-03-16T10:16:24.004Z,966.8
2018-03-16T10:17:26.780Z,966.7
2018-03-16T10:18:29.448Z,966.8
2018-03-16T10:19:32.006Z,966.8
2018-03-16T10:20:34.669Z,966.8
2018-03-16T10:21:37.366Z,966.8
2018-03-16T10:22:40.387Z,966.7
2018-03-16T10:23:46.858Z,966.7
2018-03-16T10:24:49.550Z,966.8
2018-03-16T10:25:52.303Z,966.8
2018-03-16T10:26:55.188Z,966.8
2018-03-16T10:27:57.862Z,966.8
2018-03-16T10:29:01.663Z,966.8
2018-03-16T10:30:04.810Z,966.8
2018-03-16T10:31:07.831Z,966.8
2018-03-16T10:32:18.954Z,966.9
2018-03-16T10:33:21.687Z,966.9
2018-03-16T10:34:25.429Z,966.9
2018-03-16T10:35:28.195Z,966.9
2018-03-16T10:36:31.018Z,966.9
2018-03-16T10:37:36.106Z,967
2018-03-16T10:38:39.844Z,967
2018-03-16T10:39:47.620Z,966.9
2018-03-16T10:40:50.443Z,967
2018-03-16T10:41:53.413Z,967
2018-03-16T10:42:56.696Z,967
2018-03-16T10:44:03.312Z,966.9
2018-03-16T10:45:06.266Z,967
2018-03-16T10:46:09.290Z,967
2018-03-16T10:47:12.636Z,967
2018-03-16T10:48:16.146Z,966.8
2018-03-16T10:49:18.766Z,967
2018-03-16T10:50:21.793Z,966.9
2018-03-16T10:51:26.979Z,967
2018-03-16T10:52:29.804Z,967
2018-03-16T10:53:33.597Z,967
2018-03-16T10:54:36.627Z,967
2018-03-16T10:55:39.346Z,967.1
2018-03-16T10:56:42.402Z,967.2
2018-03-16T10:57:45.486Z,967.1
2018-03-16T10:58:48.259Z,967
2018-03-16T10:59:51.069Z,967.1
2018-03-16T11:00:53.874Z,967
2018-03-16T11:01:56.795Z,967.2
2018-03-16T11:02:59.703Z,967.2
2018-03-16T11:04:03.245Z,967.2
2018-03-16T11:05:06.209Z,967.1
2018-03-16T11:06:09.620Z,967.2
2018-03-16T11:07:12.590Z,967.2
2018-03-16T11:08:15.459Z,967.2
2018-03-16T11:09:18.514Z,967.1
2018-03-16T11:10:21.398Z,967.2
2018-03-16T11:11:26.758Z,967.2
2018-03-16T11:12:29.419Z,967.1
2018-03-16T11:13:32.335Z,967.3
2018-03-16T11:14:35.095Z,967.3
2018-03-16T11:15:38.846Z,967.3
2018-03-16T11:16:41.909Z,967.3
2018-03-16T11:17:45.188Z,967.2
2018-03-16T11:18:48.673Z,967.3
2018-03-16T11:19:51.491Z,967.3
2018-03-16T11:20:54.405Z,967.3
2018-03-16T11:21:57.594Z,967.3
2018-03-16T11:23:00.542Z,967.3
2018-03-16T11:24:03.284Z,967.3
2018-03-16T11:25:06.368Z,967.3
2018-03-16T11:26:09.443Z,967.3
2018-03-16T11:27:12.144Z,967.3
2018-03-16T11:28:14.901Z,967.4
2018-03-16T11:29:18.060Z,967.3
2018-03-16T11:30:21.341Z,967.4
2018-03-16T11:31:24.992Z,967.3
2018-03-16T11:32:28.214Z,967.3
2018-03-16T11:33:31.394Z,967.4
2018-03-16T11:34:41.334Z,967.3
2018-03-16T11:35:44.577Z,967.2
2018-03-16T11:36:47.790Z,967.4
2018-03-16T11:37:51.226Z,967.4
2018-03-16T11:38:53.921Z,967.4
2018-03-16T11:39:57.438Z,967.4
2018-03-16T11:41:00.401Z,967.4
2018-03-16T11:42:03.696Z,967.4
2018-03-16T11:43:06.978Z,967.3
2018-03-16T11:44:10.377Z,967.4
2018-03-16T11:45:13.626Z,967.4
2018-03-16T11:47:47.097Z,967.3
2018-03-16T11:48:57.690Z,967.5
2018-03-16T11:50:01.565Z,967.4
2018-03-16T11:51:04.861Z,967.5
2018-03-16T11:52:12.571Z,967.4
2018-03-16T11:53:23.317Z,967.5
2018-03-16T11:54:26.627Z,967.5
2018-03-16T11:55:29.317Z,967.5
2018-03-16T11:56:32.163Z,967.5
2018-03-16T11:57:35.495Z,967.5
2018-03-16T11:58:38.336Z,967.5
2018-03-16T11:59:41.271Z,967.5
2018-03-16T12:00:44.465Z,967.3
2018-03-16T12:01:47.674Z,967.5
2018-03-16T12:02:50.914Z,967.3
2018-03-16T12:03:53.815Z,967.5
2018-03-16T12:04:56.623Z,967.5
2018-03-16T12:05:59.646Z,967.5
2018-03-16T12:07:02.595Z,967.5
2018-03-16T12:08:05.555Z,967.5
2018-03-16T12:09:08.283Z,967.5
2018-03-16T12:10:11.199Z,967.5
2018-03-16T12:11:14.075Z,967.5
2018-03-16T12:12:20.172Z,967.5
2018-03-16T12:13:23.206Z,967.5
2018-03-16T12:14:26.129Z,967.6
2018-03-16T12:15:36.468Z,967.5
2018-03-16T12:16:39.257Z,967.5
2018-03-16T12:17:54.069Z,967.3
2018-03-16T12:18:57.027Z,967.5
2018-03-16T12:19:59.962Z,967.5
2018-03-16T12:21:03.620Z,967.5
2018-03-16T12:22:06.876Z,967.5
2018-03-16T12:23:09.954Z,967.5
2018-03-16T12:24:13.065Z,967.5
2018-03-16T12:25:16.471Z,967.6
2018-03-16T12:26:32.231Z,967.5
2018-03-16T12:27:35.434Z,967.5
2018-03-16T12:29:57.515Z,967.6
2018-03-16T12:31:01.329Z,967.5
2018-03-16T12:32:04.270Z,967.5
2018-03-16T12:33:12.361Z,967.5
2018-03-16T12:34:17.076Z,967.5
2018-03-16T12:35:21.207Z,967.6
2018-03-16T12:36:24.375Z,967.6
2018-03-16T12:37:37.063Z,967.6
2018-03-16T12:38:40.606Z,967.5
2018-03-16T12:39:43.676Z,967.6
2018-03-16T12:40:47.110Z,967.5
2018-03-16T12:41:51.196Z,967.5
2018-03-16T12:42:54.371Z,967.5
2018-03-16T12:43:57.224Z,967.6
2018-03-16T12:45:17.620Z,967.6
2018-03-16T12:46:23.878Z,967.6
2018-03-16T12:47:33.231Z,967.5
2018-03-16T12:48:44.137Z,967.5
2018-03-16T12:49:52.182Z,967.6
2018-03-16T12:50:57.384Z,967.6
2018-03-16T12:52:04.181Z,967.5
2018-03-16T12:53:14.509Z,967.6
2018-03-16T12:54:17.810Z,967.6
2018-03-16T12:55:20.954Z,967.6
2018-03-16T12:56:26.958Z,967.7
2018-03-16T12:57:30.077Z,967.6
2018-03-16T12:58:32.973Z,967.6
2018-03-16T12:59:35.757Z,967.6
2018-03-16T13:00:38.680Z,967.6
2018-03-16T13:01:41.832Z,967.6
2018-03-16T13:02:44.790Z,967.6
2018-03-16T13:03:48.028Z,967.6
2018-03-16T13:04:51.015Z,967.7
2018-03-16T13:05:53.912Z,967.6
2018-03-16T13:06:57.375Z,967.7
2018-03-16T13:08:00.214Z,967.7
2018-03-16T13:09:02.900Z,967.7
2018-03-16T13:10:05.799Z,967.7
2018-03-16T13:11:08.639Z,967.7
2018-03-16T13:12:11.226Z,967.8
2018-03-16T13:13:14.015Z,967.6
2018-03-16T13:14:17.060Z,967.8
2018-03-16T13:15:19.866Z,967.7
2018-03-16T13:16:28.907Z,967.8
2018-03-16T13:17:32.010Z,967.8
2018-03-16T13:18:34.833Z,967.8
2018-03-16T13:19:38.079Z,967.8
2018-03-16T13:20:41.003Z,967.8
2018-03-16T13:21:44.201Z,967.8
2018-03-16T13:22:47.322Z,967.8
2018-03-16T13:23:50.452Z,967.9
2018-03-16T13:24:53.378Z,967.8
2018-03-16T13:25:56.595Z,967.9
2018-03-16T13:26:59.476Z,967.9
2018-03-16T13:28:02.936Z,967.9
2018-03-16T13:29:06.027Z,967.8
2018-03-16T13:30:08.915Z,967.9
2018-03-16T13:31:11.544Z,967.9
2018-03-16T13:32:14.912Z,967.9
2018-03-16T13:33:18.088Z,967.9
2018-03-16T13:34:20.905Z,967.9
2018-03-16T13:35:23.618Z,967.9
2018-03-16T13:36:26.760Z,967.9
2018-03-16T13:37:29.882Z,967.9
2018-03-16T13:38:33.301Z,968
2018-03-16T13:39:36.190Z,967.9
2018-03-16T13:40:39.687Z,967.9